Time;durP1;ratioP1;P1;durP2;ratioP2;P2;SDS_P1;SDS_P2;PMS_P1;PMS_P2;Temp;Humidity;BMP_temperature;BMP_pressure;BME280_temperature;BME280_humidity;BME280_pressure;Samples;Min_cycle;Max_cycle;Signal;HPM_P1;HPM_P2
2022/09/05 00:01:24;;;;;;;8.50;2.70;;;;;;;14.49;77.97;101169.12;105192;1281;24230;-52
2022/09/05 00:04:20;;;;;;;9.50;2.90;;;;;;;14.49;78.03;101168.40;105152;1281;24245;-50
2022/09/05 00:07:15;;;;;;;12.00;3.00;;;;;;;14.48;78.20;101169.76;105140;1281;24122;-50
2022/09/05 00:10:16;;;;;;;9.20;2.60;;;;;;;14.47;78.31;101170.52;105132;1281;22563;-52
2022/09/05 00:13:09;;;;;;;11.20;3.20;;;;;;;14.47;78.00;101168.55;105363;1274;22626;-50
2022/09/05 00:16:14;;;;;;;7.30;2.30;;;;;;;14.46;78.36;101173.55;105651;1273;22691;-53
2022/09/05 00:19:11;;;;;;;14.80;3.40;;;;;;;14.45;78.33;101178.69;105481;1273;25218;-50
2022/09/05 00:22:13;;;;;;;11.20;3.40;;;;;;;14.44;78.35;101180.10;105637;1273;22715;-53
2022/09/05 00:25:16;;;;;;;8.50;2.50;;;;;;;14.43;78.32;101177.42;105655;1273;25526;-50
2022/09/05 00:28:13;;;;;;;7.90;2.50;;;;;;;14.42;78.39;101181.59;105495;1273;24295;-50
2022/09/05 00:31:18;;;;;;;9.10;2.40;;;;;;;14.40;78.27;101179.02;105492;1273;24348;-51
2022/09/05 00:34:33;;;;;;;8.90;3.20;;;;;;;14.38;78.78;101178.02;105519;1273;22548;-51
2022/09/05 00:37:36;;;;;;;8.60;2.60;;;;;;;14.34;78.72;101175.98;105631;1273;24526;-51
2022/09/05 00:40:33;;;;;;;9.60;2.90;;;;;;;14.33;78.71;101177.34;105486;1273;25396;-53
2022/09/05 00:43:26;;;;;;;10.80;2.80;;;;;;;14.31;78.71;101178.64;105647;1273;22728;-52
2022/09/05 00:46:21;;;;;;;9.20;3.00;;;;;;;14.28;78.78;101177.50;105630;1271;25596;-51
2022/09/05 00:49:21;;;;;;;12.00;3.50;;;;;;;14.24;78.72;101175.77;105860;1271;22538;31
2022/09/05 00:52:17;;;;;;;8.70;2.80;;;;;;;14.22;78.84;101176.91;105531;1274;22554;-64
2022/09/05 00:55:21;;;;;;;11.60;3.60;;;;;;;14.20;78.93;101174.65;105609;1274;22550;-64
2022/09/05 00:58:48;;;;;;;7.70;2.80;;;;;;;14.15;78.95;101173.10;105600;1274;22622;-65
2022/09/05 01:01:51;;;;;;;8.90;2.60;;;;;;;14.12;79.01;101179.72;105293;1279;24411;-64
2022/09/05 01:04:50;;;;;;;10.90;3.60;;;;;;;14.08;79.20;101175.25;105335;1279;25404;-63
2022/09/05 01:07:52;;;;;;;11.20;3.70;;;;;;;14.05;79.10;101175.84;105217;1279;22573;-63
2022/09/05 01:10:49;;;;;;;9.50;2.90;;;;;;;14.04;79.22;101174.29;105273;1279;24074;-63
2022/09/05 01:13:50;;;;;;;11.90;3.10;;;;;;;14.01;79.42;101171.63;105427;1279;23077;-63
2022/09/05 01:17:08;;;;;;;9.80;3.30;;;;;;;13.98;79.26;101171.00;105453;1281;23876;-64
2022/09/05 01:20:10;;;;;;;10.60;3.50;;;;;;;13.97;79.27;101168.89;105294;1279;22716;-63
2022/09/05 01:23:41;;;;;;;10.20;3.80;;;;;;;13.95;79.25;101168.02;105189;1279;22559;-63
2022/09/05 01:27:00;;;;;;;9.60;3.00;;;;;;;13.92;79.31;101174.10;104792;1284;23134;-64
2022/09/05 01:29:56;;;;;;;11.20;3.30;;;;;;;13.88;79.26;101176.40;104295;1290;22576;-68
2022/09/05 01:32:55;;;;;;;10.40;3.00;;;;;;;13.86;79.38;101179.61;104205;1288;22940;-64
2022/09/05 01:36:11;;;;;;;10.00;4.10;;;;;;;13.83;79.47;101180.10;104547;1284;22894;-64
2022/09/05 01:39:05;;;;;;;10.70;3.70;;;;;;;13.79;79.56;101184.83;104861;1284;24841;-63
2022/09/05 01:42:04;;;;;;;15.70;4.00;;;;;;;13.77;79.89;101185.49;104890;1284;25378;-63
2022/09/05 01:44:59;;;;;;;11.60;3.70;;;;;;;13.76;79.85;101185.67;104874;1284;22722;-63
2022/09/05 01:47:58;;;;;;;11.30;3.60;;;;;;;13.75;79.92;101178.41;104686;1284;22632;-63
2022/09/05 01:50:57;;;;;;;13.10;4.20;;;;;;;13.75;79.89;101182.81;104853;1284;22630;-65
2022/09/05 01:53:53;;;;;;;9.20;3.20;;;;;;;13.75;80.00;101179.48;104818;1284;22626;-63
2022/09/05 01:56:53;;;;;;;10.10;4.50;;;;;;;13.75;80.11;101187.48;104929;1284;25257;-64
2022/09/05 01:59:46;;;;;;;;;;;;;;;13.74;80.16;101186.97;105035;1284;22696;-64
2022/09/05 02:02:54;;;;;;;10.50;3.00;;;;;;;13.72;80.26;101189.46;104829;1279;22642;-64
2022/09/05 02:06:11;;;;;;;11.30;4.20;;;;;;;13.72;80.25;101190.09;105287;1281;22700;-63
2022/09/05 02:09:18;;;;;;;8.50;3.30;;;;;;;13.72;80.31;101190.34;105655;1273;22557;-63
2022/09/05 02:12:20;;;;;;;8.30;3.40;;;;;;;13.71;80.20;101193.05;105505;1273;24235;-63
2022/09/05 02:15:18;;;;;;;9.90;3.60;;;;;;;13.68;80.14;101189.67;105477;1275;22694;-62
2022/09/05 02:18:16;;;;;;;10.90;3.70;;;;;;;13.67;80.17;101188.48;105531;1276;22554;-63
2022/09/05 02:21:15;;;;;;;10.60;4.20;;;;;;;13.64;80.39;101191.17;105593;1275;22695;-64
2022/09/05 02:24:15;;;;;;;12.90;3.70;;;;;;;13.59;80.30;101190.45;105590;1273;24238;-64
2022/09/05 02:27:16;;;;;;;11.30;4.00;;;;;;;13.56;80.37;101196.11;105542;1274;25313;-63
2022/09/05 02:30:11;;;;;;;10.20;4.40;;;;;;;13.52;80.60;101194.25;105633;1273;22713;-64
2022/09/05 02:33:20;;;;;;;10.70;4.30;;;;;;;13.49;80.57;101192.64;105606;1273;22571;-63
2022/09/05 02:36:18;;;;;;;14.70;4.70;;;;;;;13.49;80.63;101199.41;105595;1273;25071;-62
2022/09/05 02:39:20;;;;;;;12.80;4.40;;;;;;;13.48;80.59;101197.35;105542;1274;22541;-63
2022/09/05 02:42:20;;;;;;;12.10;4.20;;;;;;;13.47;80.54;101200.45;105579;1273;24492;-63
2022/09/05 02:45:18;;;;;;;15.30;4.80;;;;;;;13.44;80.67;101203.88;105527;1273;22525;-63
2022/09/05 02:48:17;;;;;;;11.00;4.00;;;;;;;13.41;80.69;101203.57;105495;1274;22662;-63
2022/09/05 02:51:15;;;;;;;12.40;4.30;;;;;;;13.40;80.61;101200.30;105527;1274;24225;-64
2022/09/05 02:54:08;;;;;;;15.90;5.00;;;;;;;13.40;80.97;101201.60;105507;1273;22548;-62
2022/09/05 02:57:09;;;;;;;13.40;4.50;;;;;;;13.37;80.83;101199.40;105538;1273;23240;-62
2022/09/05 03:00:04;;;;;;;;;;;;;;;13.35;80.92;101199.77;105732;1273;24010;-63
2022/09/05 03:03:17;;;;;;;11.00;5.00;;;;;;;13.30;80.93;101201.18;105490;1273;24326;-63
2022/09/05 03:06:20;;;;;;;12.20;5.00;;;;;;;13.26;80.84;101200.43;105589;1273;25494;-63
2022/09/05 03:09:30;;;;;;;13.50;5.10;;;;;;;13.22;81.01;101200.69;105564;1273;22587;-63
2022/09/05 03:13:13;;;;;;;11.00;4.20;;;;;;;13.19;81.21;101200.52;105603;1273;22550;-64
2022/09/05 03:16:28;;;;;;;14.00;4.60;;;;;;;13.18;81.23;101198.13;105490;1275;22544;-64
2022/09/05 03:20:01;;;;;;;14.00;4.30;;;;;;;13.15;81.08;101201.54;105644;1273;22562;-63
2022/09/05 03:23:19;;;;;;;11.60;4.40;;;;;;;13.13;81.41;101209.02;105397;1279;23209;-63
2022/09/05 03:26:34;;;;;;;10.10;3.90;;;;;;;13.11;81.27;101210.41;105318;1279;27028;-63
2022/09/05 03:30:07;;;;;;;12.10;4.10;;;;;;;13.08;81.15;101207.80;105379;1279;25019;-62
2022/09/05 03:33:40;;;;;;;10.80;4.20;;;;;;;13.07;81.36;101207.80;104883;1282;25342;-63
2022/09/05 03:37:08;;;;;;;11.00;5.20;;;;;;;13.06;81.42;101209.90;104266;1287;22987;-63
2022/09/05 03:40:20;;;;;;;11.70;3.80;;;;;;;13.02;81.57;101209.24;104494;1287;23797;-63
2022/09/05 03:43:36;;;;;;;13.10;4.20;;;;;;;12.99;81.61;101216.70;104286;1287;22554;-63
2022/09/05 03:46:46;;;;;;;11.00;3.90;;;;;;;12.97;81.61;101221.41;104297;1287;24035;-64
2022/09/05 03:50:03;;;;;;;10.40;4.90;;;;;;;12.95;81.83;101221.50;104175;1287;22618;-63
2022/09/05 03:53:05;;;;;;;12.50;4.40;;;;;;;12.94;81.83;101223.88;104331;1290;22583;-63
2022/09/05 03:56:10;;;;;;;12.60;4.80;;;;;;;12.92;81.80;101225.20;104726;1284;25520;-63
2022/09/05 03:59:28;;;;;;;12.00;5.00;;;;;;;12.91;81.88;101226.25;104791;1284;24014;-63
2022/09/05 04:02:23;;;;;;;13.70;4.80;;;;;;;12.89;82.09;101230.94;104139;1287;22754;-63
2022/09/05 04:05:17;;;;;;;13.20;5.60;;;;;;;12.87;82.10;101230.77;104156;1290;22733;-62
2022/09/05 04:08:13;;;;;;;12.50;4.50;;;;;;;12.87;82.22;101233.42;104204;1287;25458;-63
2022/09/05 04:11:08;;;;;;;13.00;5.10;;;;;;;12.86;82.21;101235.05;104658;1284;25197;-63
2022/09/05 04:14:01;;;;;;;11.90;4.60;;;;;;;12.86;82.41;101238.34;105105;1281;22544;-62
2022/09/05 04:16:54;;;;;;;11.50;4.40;;;;;;;12.86;82.52;101242.29;105296;1281;22602;-63
2022/09/05 04:19:48;;;;;;;12.10;4.10;;;;;;;12.86;82.56;101248.69;105379;1277;25364;-63
2022/09/05 04:23:08;;;;;;;14.30;4.40;;;;;;;12.86;82.53;101250.62;105254;1281;22667;-63
2022/09/05 04:26:09;;;;;;;13.80;5.10;;;;;;;12.86;82.76;101256.04;105327;1279;24248;-62
2022/09/05 04:29:14;;;;;;;13.10;5.10;;;;;;;12.86;82.85;101259.71;105312;1281;22655;-63
2022/09/05 04:32:13;;;;;;;12.20;4.30;;;;;;;12.88;82.98;101255.07;105404;1277;23077;-62
2022/09/05 04:35:19;;;;;;;15.20;5.00;;;;;;;12.91;82.97;101259.12;105325;1277;22864;-63
2022/09/05 04:38:19;;;;;;;14.30;5.00;;;;;;;12.95;82.97;101257.05;105436;1279;22656;-63
2022/09/05 04:41:11;;;;;;;17.80;5.00;;;;;;;12.99;83.13;101259.52;105500;1274;22548;-62
2022/09/05 04:44:06;;;;;;;17.00;4.70;;;;;;;13.00;83.13;101262.66;105609;1273;22826;-64
2022/09/05 04:47:01;;;;;;;12.50;4.10;;;;;;;13.03;83.19;101265.59;105519;1273;22764;-63
2022/09/05 04:49:57;;;;;;;11.70;4.30;;;;;;;13.06;83.33;101266.60;105626;1273;24239;-65
2022/09/05 04:53:19;;;;;;;12.10;4.60;;;;;;;13.09;83.23;101271.67;105574;1273;22553;-63
2022/09/05 04:56:15;;;;;;;13.70;4.80;;;;;;;13.13;83.22;101274.94;105576;1273;22554;-64
2022/09/05 04:59:11;;;;;;;11.20;4.00;;;;;;;13.17;83.17;101275.48;105483;1274;22544;-64
2022/09/05 05:02:04;;;;;;;12.60;4.00;;;;;;;13.21;83.26;101280.39;105623;1273;22548;-63
2022/09/05 05:05:02;;;;;;;14.10;5.10;;;;;;;13.26;83.31;101277.81;105603;1273;25601;-63
2022/09/05 05:07:59;;;;;;;13.90;4.80;;;;;;;13.32;83.24;101275.53;105580;1273;22551;-63
2022/09/05 05:10:52;;;;;;;12.10;3.90;;;;;;;13.38;83.21;101277.27;105445;1275;24277;-64
2022/09/05 05:13:47;;;;;;;16.60;5.10;;;;;;;13.42;83.19;101283.05;107999;1273;22549;-63
2022/09/05 05:16:45;;;;;;;10.70;4.40;;;;;;;13.48;83.01;101281.77;105664;1273;22557;-63
2022/09/05 05:19:39;;;;;;;10.40;3.50;;;;;;;13.54;83.22;101283.70;105503;1274;25380;-65
2022/09/05 05:22:29;;;;;;;10.00;4.00;;;;;;;13.61;83.18;101287.93;105511;1274;25440;-63
2022/09/05 05:25:18;;;;;;;9.80;3.70;;;;;;;13.68;83.21;101290.86;105530;1275;26547;-64
2022/09/05 05:28:13;;;;;;;10.30;3.60;;;;;;;13.75;83.02;101289.16;105572;1275;26340;-64
2022/09/05 05:31:13;;;;;;;14.30;4.50;;;;;;;13.81;83.05;101291.98;105597;1273;25990;-65
2022/09/05 05:34:05;;;;;;;16.20;4.50;;;;;;;13.86;82.75;101291.10;105531;1275;23420;-63
2022/09/05 05:36:59;;;;;;;12.50;4.00;;;;;;;13.89;82.66;101292.02;105557;1273;22549;-64
2022/09/05 05:39:58;;;;;;;10.70;3.40;;;;;;;13.91;82.60;101298.01;105626;1273;25310;-64
2022/09/05 05:42:48;;;;;;;11.60;3.60;;;;;;;13.93;82.72;101296.52;105637;1273;22556;-63
2022/09/05 05:45:37;;;;;;;10.10;3.50;;;;;;;13.96;82.61;101295.33;105648;1273;26543;-63
2022/09/05 05:48:36;;;;;;;13.00;3.40;;;;;;;14.00;82.52;101292.80;105750;1273;22573;-64
2022/09/05 05:51:41;;;;;;;11.60;3.90;;;;;;;14.03;82.48;101294.04;105624;1273;24244;-65
2022/09/05 05:54:36;;;;;;;11.60;3.40;;;;;;;14.06;82.35;101298.59;105656;1273;25371;-64
2022/09/05 05:57:57;;;;;;;9.80;3.20;;;;;;;14.08;82.28;101298.65;105483;1274;22682;-64
2022/09/05 06:01:14;;;;;;;12.10;3.90;;;;;;;14.11;82.28;101306.52;105553;1275;22738;-64
2022/09/05 06:04:39;;;;;;;12.70;4.10;;;;;;;14.16;82.20;101304.84;105289;1281;25511;-64
2022/09/05 06:07:37;;;;;;;14.00;4.20;;;;;;;14.22;81.95;101311.20;100679;1282;5824831;-64
2022/09/05 06:11:01;;;;;;;10.90;3.60;;;;;;;14.27;81.87;101309.48;105034;1281;22718;-64
2022/09/05 06:14:53;;;;;;;13.40;3.10;;;;;;;14.33;81.71;101310.32;105019;1281;23248;-65
2022/09/05 06:18:29;;;;;;;11.60;3.70;;;;;;;14.40;81.62;101307.15;105030;1281;24405;-64
2022/09/05 06:22:04;;;;;;;10.00;3.10;;;;;;;14.45;81.45;101310.34;105011;1281;22572;-63
2022/09/05 06:25:38;;;;;;;14.50;3.70;;;;;;;14.52;81.53;101311.58;104975;1281;25730;-64
2022/09/05 06:28:38;;;;;;;10.70;4.00;;;;;;;14.59;81.20;101315.92;104860;1282;25499;-64
2022/09/05 06:31:52;;;;;;;20.00;3.40;;;;;;;14.66;80.96;101317.75;104988;1281;22678;-63
2022/09/05 06:35:10;;;;;;;9.10;3.30;;;;;;;14.73;80.71;101319.05;104958;1282;22636;-64
2022/09/05 06:38:11;;;;;;;10.90;3.20;;;;;;;14.80;80.86;101316.59;104896;1282;22671;-63
2022/09/05 06:41:19;;;;;;;10.50;3.20;;;;;;;14.86;80.52;101314.25;104990;1279;24250;-64
2022/09/05 06:44:25;;;;;;;9.80;2.60;;;;;;;14.92;80.21;101315.79;105455;1274;22607;-63
2022/09/05 06:47:18;;;;;;;11.60;3.40;;;;;;;14.99;80.30;101319.19;105516;1274;23886;-65
2022/09/05 06:50:13;;;;;;;9.20;3.40;;;;;;;15.04;79.94;101322.91;105575;1274;22976;-64
2022/09/05 06:53:36;;;;;;;10.80;3.30;;;;;;;15.08;79.86;101323.56;105740;1273;24239;-65
2022/09/05 06:56:50;;;;;;;10.10;3.50;;;;;;;15.16;79.89;101329.21;105498;1275;24423;-63
2022/09/05 07:00:12;;;;;;;12.00;3.10;;;;;;;15.24;79.86;101328.27;105679;1273;25478;-64
2022/09/05 07:03:27;;;;;;;13.30;3.40;;;;;;;15.31;79.49;101331.73;105688;1273;22562;-66
2022/09/05 07:06:28;;;;;;;14.80;5.10;;;;;;;15.39;79.60;101334.52;105362;1276;22667;-65
2022/09/05 07:09:27;;;;;;;11.60;3.10;;;;;;;15.44;79.51;101331.91;105388;1276;24441;-65
2022/09/05 07:12:25;;;;;;;8.00;2.70;;;;;;;15.51;79.17;101333.41;105417;1276;22571;-64
2022/09/05 07:15:22;;;;;;;9.90;3.40;;;;;;;15.58;79.03;101340.02;105451;1276;23201;-65
2022/09/05 07:18:22;;;;;;;11.50;3.20;;;;;;;15.65;79.02;101336.98;105411;1276;22556;-65
2022/09/05 07:21:22;;;;;;;9.60;2.90;;;;;;;15.70;78.88;101332.20;105417;1276;26884;-64
2022/09/05 07:24:11;;;;;;;;;;;;;;;15.76;78.39;101333.55;105503;1276;24236;-64
2022/09/05 07:27:05;;;;;;;10.70;2.30;;;;;;;15.82;78.32;101334.77;105549;1276;22839;-65
2022/09/05 07:29:58;;;;;;;7.90;2.50;;;;;;;15.86;78.25;101338.27;105433;1276;22599;-65
2022/09/05 07:32:52;;;;;;;8.90;2.70;;;;;;;15.93;78.30;101339.72;105365;1276;22745;-65
2022/09/05 07:35:43;;;;;;;6.30;2.20;;;;;;;16.02;78.08;101340.10;105465;1276;25266;-64
2022/09/05 07:38:35;;;;;;;11.70;2.90;;;;;;;16.10;77.84;101341.94;105375;1276;25595;-65
2022/09/05 07:41:28;;;;;;;8.10;2.70;;;;;;;16.19;77.83;101341.92;105473;1276;24454;-65
2022/09/05 07:44:22;;;;;;;11.00;2.90;;;;;;;16.28;77.32;101343.01;105596;1273;22560;-65
2022/09/05 07:47:17;;;;;;;9.60;2.10;;;;;;;16.35;77.14;101346.95;105675;1273;25431;-64
2022/09/05 07:50:11;;;;;;;8.10;2.00;;;;;;;16.42;76.98;101347.66;105665;1273;22660;-64
2022/09/05 07:53:03;;;;;;;7.30;2.20;;;;;;;16.51;76.76;101349.70;105543;1274;24978;-64
2022/09/05 07:55:57;;;;;;;9.20;2.70;;;;;;;16.59;76.36;101350.41;105639;1273;22560;-65
2022/09/05 07:58:50;;;;;;;9.40;2.20;;;;;;;16.66;76.34;101351.88;105657;1273;24242;-64
2022/09/05 08:01:44;;;;;;;9.10;2.60;;;;;;;16.73;76.03;101352.15;105534;1273;22538;-65
2022/09/05 08:04:34;;;;;;;11.00;2.30;;;;;;;16.81;76.12;101348.14;107699;1272;25424;-65
2022/09/05 08:07:23;;;;;;;;;;;;;;;16.88;75.57;101345.56;105618;1273;22520;-65
2022/09/05 08:10:16;;;;;;;7.70;2.00;;;;;;;16.94;75.39;101343.78;105455;1274;22562;-65
2022/09/05 08:13:08;;;;;;;9.20;2.00;;;;;;;17.01;75.15;101344.46;105401;1274;25296;-65
2022/09/05 08:15:59;;;;;;;9.70;2.20;;;;;;;17.10;75.00;101342.05;105531;1274;26316;-64
2022/09/05 08:18:51;;;;;;;10.40;2.10;;;;;;;17.22;74.73;101344.77;105651;1273;22589;-65
2022/09/05 08:21:46;;;;;;;10.40;2.40;;;;;;;17.33;74.62;101341.45;105523;1273;22550;-64
2022/09/05 08:24:41;;;;;;;8.30;1.90;;;;;;;17.41;74.23;101340.09;105738;1273;25476;-65
2022/09/05 08:27:36;;;;;;;7.00;1.80;;;;;;;17.47;73.47;101340.76;105794;1273;22689;-65
2022/09/05 08:30:25;;;;;;;9.00;1.90;;;;;;;17.53;73.37;101344.02;105719;1273;22589;-65
2022/09/05 08:33:21;;;;;;;8.90;2.10;;;;;;;17.61;73.19;101336.80;105553;1274;25397;-65
2022/09/05 08:36:20;;;;;;;8.10;2.10;;;;;;;17.68;73.02;101340.70;105737;1273;25316;-65
2022/09/05 08:39:11;;;;;;;7.70;2.30;;;;;;;17.76;72.67;101329.04;105529;1274;24322;-64
2022/09/05 08:42:17;;;;;;;6.40;1.90;;;;;;;17.85;72.28;101328.84;105622;1274;24340;-66
2022/09/05 08:45:19;;;;;;;9.50;2.20;;;;;;;17.93;71.87;101331.10;105539;1274;25392;-65
2022/09/05 08:48:21;;;;;;;7.40;2.40;;;;;;;18.01;71.67;101329.92;105504;1274;22573;-65
2022/09/05 08:51:34;;;;;;;8.30;2.00;;;;;;;18.10;71.56;101324.79;105672;1273;24299;-65
2022/09/05 08:54:28;;;;;;;10.50;2.50;;;;;;;18.18;71.21;101323.80;105611;1275;24548;-64
2022/09/05 08:57:25;;;;;;;10.50;2.30;;;;;;;18.27;70.82;101318.51;105553;1274;22704;-65
2022/09/05 09:00:16;;;;;;;7.50;1.90;;;;;;;18.33;70.19;101317.55;105586;1274;22530;-66
2022/09/05 09:03:28;;;;;;;10.00;1.80;;;;;;;18.37;69.93;101308.52;105592;1274;25359;-67
2022/09/05 09:06:29;;;;;;;7.10;1.80;;;;;;;18.46;70.06;101301.55;105645;1274;24321;-65
2022/09/05 09:09:25;;;;;;;7.00;2.00;;;;;;;18.60;69.82;101304.07;105578;1275;22574;-66
2022/09/05 09:12:34;;;;;;;9.40;1.90;;;;;;;18.67;69.27;101296.56;105528;1276;24390;-65
2022/09/05 09:15:31;;;;;;;8.50;1.50;;;;;;;18.73;69.08;101297.92;105620;1275;24205;-65
2022/09/05 09:18:25;;;;;;;7.30;2.00;;;;;;;18.78;68.65;101289.81;105762;1273;25371;-65
2022/09/05 09:21:34;;;;;;;8.60;1.70;;;;;;;18.86;68.47;101286.39;105627;1273;24435;-66
2022/09/05 09:24:38;;;;;;;6.70;1.70;;;;;;;18.94;67.62;101287.23;105634;1274;23186;-66
2022/09/05 09:27:33;;;;;;;6.60;1.70;;;;;;;18.99;67.44;101285.64;105486;1274;22562;-66
2022/09/05 09:30:22;;;;;;;6.10;1.60;;;;;;;19.02;66.85;101287.44;105673;1273;25384;-66
2022/09/05 09:33:20;;;;;;;5.80;1.50;;;;;;;19.06;66.70;101290.02;105524;1274;23073;-66
2022/09/05 09:36:23;;;;;;;7.50;1.40;;;;;;;19.10;65.96;101279.77;105652;1273;23952;-66
2022/09/05 09:39:25;;;;;;;5.60;1.50;;;;;;;19.14;66.03;101286.31;105733;1273;24484;-66
2022/09/05 09:42:30;;;;;;;6.10;2.10;;;;;;;19.19;65.80;101285.71;105666;1275;24374;-66
2022/09/05 09:45:48;;;;;;;5.90;1.80;;;;;;;19.29;66.11;101284.02;107962;1273;22653;-66
2022/09/05 09:49:08;;;;;;;5.60;1.60;;;;;;;19.41;65.52;101281.77;105529;1275;22584;-65
2022/09/05 09:52:34;;;;;;;7.70;1.70;;;;;;;19.46;64.39;101283.00;106025;1273;24284;-66
2022/09/05 09:56:02;;;;;;;7.50;1.50;;;;;;;19.48;64.21;101279.50;105761;1274;22548;-66
2022/09/05 09:59:24;;;;;;;6.60;2.00;;;;;;;19.52;64.12;101281.30;105681;1275;26533;-66
2022/09/05 10:02:35;;;;;;;9.30;1.60;;;;;;;19.67;64.01;101275.36;105668;1274;26953;-67
2022/09/05 10:05:42;;;;;;;7.80;2.00;;;;;;;19.75;63.55;101274.36;105581;1274;22638;-66
2022/09/05 10:08:46;;;;;;;7.00;1.60;;;;;;;19.80;62.52;101273.92;105657;1274;25271;-66
2022/09/05 10:11:48;;;;;;;10.00;1.50;;;;;;;19.80;61.79;101273.38;105649;1274;22706;-66
2022/09/05 10:15:03;;;;;;;6.60;1.60;;;;;;;19.84;62.03;101274.39;105516;1274;24264;-66
2022/09/05 10:18:24;;;;;;;5.70;1.30;;;;;;;19.92;61.61;101276.23;105608;1274;24231;-66
2022/09/05 10:21:39;;;;;;;5.70;1.20;;;;;;;19.99;61.25;101276.67;105466;1275;23074;-66
2022/09/05 10:24:50;;;;;;;5.40;1.40;;;;;;;20.06;60.60;101276.34;105554;1274;22574;-66
2022/09/05 10:27:54;;;;;;;7.70;1.30;;;;;;;20.09;60.12;101274.15;105602;1274;24263;-65
2022/09/05 10:31:04;;;;;;;7.50;1.40;;;;;;;20.12;59.53;101266.21;105541;1275;24441;-66
2022/09/05 10:33:55;;;;;;;;;;;;;;;20.16;59.94;101265.95;105738;1274;24552;-67
2022/09/05 10:36:50;;;;;;;6.30;1.40;;;;;;;20.20;59.67;101264.24;105636;1274;22553;-66
2022/09/05 10:39:42;;;;;;;4.10;1.30;;;;;;;20.21;59.23;101258.33;105759;1274;25310;-66
2022/09/05 10:42:36;;;;;;;5.40;1.20;;;;;;;20.19;59.08;101258.11;105576;1274;25364;-66
2022/09/05 10:45:35;;;;;;;6.80;1.30;;;;;;;20.19;58.82;101253.27;105689;1274;26677;-66
2022/09/05 10:48:29;;;;;;;8.20;1.20;;;;;;;20.23;59.08;101252.59;105652;1275;22578;-67
2022/09/05 10:51:28;;;;;;;7.80;1.50;;;;;;;20.27;58.68;101242.37;105718;1274;23904;-66
2022/09/05 10:54:29;;;;;;;4.80;1.20;;;;;;;20.32;58.48;101247.49;105678;1274;25396;-66
2022/09/05 10:57:34;;;;;;;4.30;1.30;;;;;;;20.38;58.13;101246.33;105729;1274;22802;-66
2022/09/05 11:00:50;;;;;;;4.00;1.20;;;;;;;20.42;57.85;101239.81;105644;1275;22618;-66
2022/09/05 11:03:51;;;;;;;5.00;1.10;;;;;;;20.47;57.50;101235.31;105775;1273;22684;-67
2022/09/05 11:06:54;;;;;;;7.50;1.70;;;;;;;20.49;56.98;101238.02;105505;1275;22573;-66
2022/09/05 11:10:01;;;;;;;4.30;1.20;;;;;;;20.55;57.38;101236.70;105651;1274;24364;-66
2022/09/05 11:13:09;;;;;;;3.60;1.10;;;;;;;20.58;57.10;101233.79;105647;1274;22866;-66
2022/09/05 11:16:11;;;;;;;5.40;1.20;;;;;;;20.62;56.69;101229.48;105499;1274;23438;-67
2022/09/05 11:19:12;;;;;;;3.90;1.10;;;;;;;20.70;56.32;101233.71;105485;1274;23058;-66
2022/09/05 11:22:04;;;;;;;6.80;1.10;;;;;;;20.77;55.64;101229.59;105465;1274;22600;-67
2022/09/05 11:24:56;;;;;;;6.30;1.20;;;;;;;20.82;55.53;101229.30;105439;1274;25689;-67
2022/09/05 11:27:49;;;;;;;7.90;1.40;;;;;;;20.85;55.33;101221.34;105599;1274;25383;-66
2022/09/05 11:30:42;;;;;;;5.70;1.30;;;;;;;20.89;55.34;101220.62;105572;1274;24617;-67
2022/09/05 11:33:49;;;;;;;5.50;1.30;;;;;;;20.99;55.13;101221.33;105474;1274;22584;-67
2022/09/05 11:36:45;;;;;;;7.20;1.30;;;;;;;21.09;55.03;101218.08;105489;1274;24332;-66
2022/09/05 11:40:04;;;;;;;3.70;0.90;;;;;;;21.15;54.49;101213.93;105588;1274;24695;-67
2022/09/05 11:43:13;;;;;;;3.20;1.00;;;;;;;21.20;54.38;101209.86;105472;1275;24316;-67
2022/09/05 11:46:20;;;;;;;4.60;1.00;;;;;;;21.23;53.36;101211.06;105453;1274;22579;-66
2022/09/05 11:49:27;;;;;;;3.40;1.10;;;;;;;21.23;53.67;101211.65;105518;1274;25377;-67
2022/09/05 11:52:59;;;;;;;6.30;1.40;;;;;;;21.28;53.49;101211.66;105452;1274;24274;-67
2022/09/05 11:56:24;;;;;;;2.80;1.00;;;;;;;21.32;53.15;101210.84;105557;1274;24257;-67
2022/09/05 11:59:29;;;;;;;8.70;1.30;;;;;;;21.36;53.13;101206.36;105208;1281;22704;-69
2022/09/05 12:02:32;;;;;;;4.80;1.20;;;;;;;21.38;52.61;101205.88;105317;1279;22639;-67
2022/09/05 12:05:51;;;;;;;4.90;1.10;;;;;;;21.39;52.39;101208.81;105213;1281;22651;-67
2022/09/05 12:08:46;;;;;;;2.90;0.90;;;;;;;21.37;52.41;101211.20;105278;1281;22630;-66
2022/09/05 12:11:55;;;;;;;6.50;1.10;;;;;;;21.34;52.00;101211.48;105326;1279;26498;-67
2022/09/05 12:14:55;;;;;;;3.00;0.80;;;;;;;21.31;51.46;101208.57;105276;1279;24323;-66
2022/09/05 12:17:53;;;;;;;5.20;1.00;;;;;;;21.33;51.65;101204.68;105338;1279;22845;-67
2022/09/05 12:20:49;;;;;;;4.10;1.10;;;;;;;21.35;51.22;101200.73;105234;1281;22664;-67
2022/09/05 12:23:51;;;;;;;3.70;1.10;;;;;;;21.38;51.42;101199.93;105215;1279;22640;-68
2022/09/05 12:26:47;;;;;;;4.30;1.00;;;;;;;21.42;51.54;101200.00;105313;1281;25439;-67
2022/09/05 12:29:40;;;;;;;7.30;1.50;;;;;;;21.49;51.54;101203.59;105221;1281;22566;-68
2022/09/05 12:32:30;;;;;;;3.80;1.10;;;;;;;21.56;51.95;101198.00;105231;1281;22930;-68
2022/09/05 12:35:30;;;;;;;7.40;1.30;;;;;;;21.60;52.02;101205.75;105494;1279;22698;-68
2022/09/05 12:38:36;;;;;;;8.70;1.20;;;;;;;21.65;51.64;101193.34;106226;1273;22865;-67
2022/09/05 12:41:37;;;;;;;10.50;3.00;;;;;;;21.71;50.92;101190.13;105692;1273;22557;-67
2022/09/05 12:44:40;;;;;;;115.50;60.70;;;;;;;21.74;50.87;101186.48;105579;1273;22650;-67
2022/09/05 12:47:30;;;;;;;22.70;8.20;;;;;;;21.75;51.20;101185.94;105465;1274;24317;-67
2022/09/05 12:50:22;;;;;;;10.40;3.00;;;;;;;21.78;51.26;101179.30;105534;1273;24241;-67
2022/09/05 12:53:17;;;;;;;4.80;1.30;;;;;;;21.84;50.79;101183.12;105746;1274;22569;-67
2022/09/05 12:56:14;;;;;;;7.80;1.90;;;;;;;21.92;50.88;101177.40;105476;1274;25486;-67
2022/09/05 12:59:07;;;;;;;6.60;1.50;;;;;;;22.00;50.70;101184.23;105399;1274;22560;-67
2022/09/05 13:02:02;;;;;;;6.80;1.10;;;;;;;22.03;50.50;101180.81;105501;1273;24546;-67
2022/09/05 13:04:56;;;;;;;3.90;1.10;;;;;;;22.06;50.45;101182.23;105475;1274;24295;-67
2022/09/05 13:07:52;;;;;;;4.80;1.20;;;;;;;22.10;50.51;101177.05;105558;1273;22884;-68
2022/09/05 13:10:44;;;;;;;5.00;1.10;;;;;;;22.17;50.39;101170.80;105554;1274;23992;-68
2022/09/05 13:13:43;;;;;;;4.90;1.30;;;;;;;22.21;49.76;101173.29;105567;1274;22567;-68
2022/09/05 13:16:31;;;;;;;;;;;;;;;22.22;49.79;101170.63;105381;1274;22534;-67
2022/09/05 13:19:39;;;;;;;5.70;1.00;;;;;;;22.20;49.32;101167.86;106126;1273;24667;-67
2022/09/05 13:22:30;;;;;;;4.70;1.10;;;;;;;22.21;49.32;101169.52;105434;1274;25440;-67
2022/09/05 13:25:25;;;;;;;4.20;1.20;;;;;;;22.24;49.28;101171.80;105513;1273;22581;-68
2022/09/05 13:28:18;;;;;;;7.50;1.10;;;;;;;22.26;48.94;101164.33;105558;1273;22554;-68
2022/09/05 13:31:11;;;;;;;5.90;1.00;;;;;;;22.26;48.94;101161.23;105546;1273;22757;-69
2022/09/05 13:34:02;;;;;;;6.60;1.30;;;;;;;22.26;48.54;101163.23;105540;1273;25370;-68
2022/09/05 13:36:57;;;;;;;5.90;1.10;;;;;;;22.24;48.48;101159.30;105585;1274;22555;-68
2022/09/05 13:39:52;;;;;;;5.50;1.00;;;;;;;22.23;48.28;101157.89;105575;1273;25409;-68
2022/09/05 13:42:44;;;;;;;4.10;0.70;;;;;;;22.23;48.23;101160.17;105449;1273;24313;-68
2022/09/05 13:45:37;;;;;;;4.00;1.20;;;;;;;22.22;48.26;101157.09;105454;1273;25374;-68
2022/09/05 13:48:36;;;;;;;5.10;1.50;;;;;;;22.21;48.08;101154.98;105634;1273;22700;-68
2022/09/05 13:51:42;;;;;;;5.10;1.20;;;;;;;22.18;48.03;101152.76;105570;1273;22704;-68
2022/09/05 13:54:39;;;;;;;4.20;1.00;;;;;;;22.13;47.91;101148.17;106251;1273;22748;-68